Odiham, United Kingdom

3:02 PM GMT on February 21, 2017 (GMT +0000)
Odiham | | Change Station

Elev 266 ft 51.26 °N, 0.95 °W | Updated 25 seconds ago

Light Drizzle
Light Drizzle
55.4 °F
Feels Like 55.4 °F
N
9.8
Wind Variable Wind from NW
Gusts 21.3 mph

Today
High -- | Low -- °F
--% Chance of Precip.
Yesterday
High -- | Low -- °F
Precip. -- in
Pressure 29.98 in
Visibility 6.2 miles
Clouds Scattered Clouds 1300 ft
Mostly Cloudy 1800 ft
Dew Point 55 °F
Humidity 99%
Rainfall 0.05 in
Snow Depth Not available.
7:05 AM 5:30 PM
Waning Crescent, 25% visible
METAR EGVO 211450Z 26016KT 9999 -DZ SCT013 BKN018 12/09 Q1015 GRN TEMPO BKN018 WHT
Pressure 29.98 in
Visibility 6.2 miles
Clouds Scattered Clouds 1300 ft
Mostly Cloudy 1800 ft
Dew Point 55 °F
Humidity 99%
Rainfall 0.05 in
Snow Depth Not available.
7:05 AM 5:30 PM
Waning Crescent, 25% visible
METAR EGVO 211450Z 26016KT 9999 -DZ SCT013 BKN018 12/09 Q1015 GRN TEMPO BKN018 WHT

Get Your Daily Forecast Email!

Thanks for signing up!

Be on the lookout for a verification email in your inbox.

You'll start receiving the daily forecast at 8 AM.

×

10-Day Weather Forecast

×

Almanac

Astronomy

Feb. 21, 2017 Rise Set
Actual Time
Civil Twilight
Nautical Twilight
Astronomical Twilight
Moon
Length of Visible Light
Length of Day
Tomorrow will be .
, % of the Moon is Illuminated

Today's Extremes

Country Highs Country Lows

Community

WunderPhotos

Upload Photos

1,962,540 photos uploaded!

WunderBlog® & News

Nearby

Air Quality

  Air Quality AQ Index Pollutant
Not available.

Snow Depth

Station Depth Elevation

Earthquake Activity

City Distance Mag. Time & Date
Minimum magnitude displayed is 2.5.

Coastal Water Temperatures

Place Temperature

Stations

Nearby Weather Stations

Station Location Temp. Windchill Dew Point Humidity Wind Precip. Elev Updated Type